sensor_id;sensor_type;location;lat;lon;timestamp;temperature;humidity
612;DHT22;293;53.888;11.464;2024-02-23T00:00:22;11.50;99.90
612;DHT22;293;53.888;11.464;2024-02-23T00:02:49;11.50;99.90
612;DHT22;293;53.888;11.464;2024-02-23T00:05:16;11.60;99.90
612;DHT22;293;53.888;11.464;2024-02-23T00:07:46;11.60;99.90
612;DHT22;293;53.888;11.464;2024-02-23T00:10:13;11.60;99.90
612;DHT22;293;53.888;11.464;2024-02-23T00:12:40;11.70;99.90
612;DHT22;293;53.888;11.464;2024-02-23T00:15:07;11.70;99.90
612;DHT22;293;53.888;11.464;2024-02-23T00:17:34;11.70;99.90
612;DHT22;293;53.888;11.464;2024-02-23T00:20:01;11.70;99.90
612;DHT22;293;53.888;11.464;2024-02-23T00:22:28;11.60;99.90
612;DHT22;293;53.888;11.464;2024-02-23T00:24:56;11.50;99.90
612;DHT22;293;53.888;11.464;2024-02-23T00:27:23;11.40;99.90
612;DHT22;293;53.888;11.464;2024-02-23T00:29:50;11.30;99.90
612;DHT22;293;53.888;11.464;2024-02-23T00:32:16;11.20;99.90
612;DHT22;293;53.888;11.464;2024-02-23T00:34:43;11.20;99.90
612;DHT22;293;53.888;11.464;2024-02-23T00:37:10;11.20;99.90
612;DHT22;293;53.888;11.464;2024-02-23T00:39:37;11.20;99.90
612;DHT22;293;53.888;11.464;2024-02-23T00:42:06;11.10;99.90
612;DHT22;293;53.888;11.464;2024-02-23T00:44:33;11.10;99.90
612;DHT22;293;53.888;11.464;2024-02-23T00:47:00;11.10;99.90
612;DHT22;293;53.888;11.464;2024-02-23T00:49:28;11.00;99.90
612;DHT22;293;53.888;11.464;2024-02-23T00:51:55;11.00;99.90
612;DHT22;293;53.888;11.464;2024-02-23T00:54:22;10.90;99.90
612;DHT22;293;53.888;11.464;2024-02-23T00:56:49;10.90;99.90
612;DHT22;293;53.888;11.464;2024-02-23T00:59:17;10.80;99.90
612;DHT22;293;53.888;11.464;2024-02-23T01:01:44;10.80;99.90
612;DHT22;293;53.888;11.464;2024-02-23T01:04:11;10.70;99.90
612;DHT22;293;53.888;11.464;2024-02-23T01:06:38;10.50;99.90
612;DHT22;293;53.888;11.464;2024-02-23T01:09:05;10.40;99.90
612;DHT22;293;53.888;11.464;2024-02-23T01:11:32;10.30;99.90
612;DHT22;293;53.888;11.464;2024-02-23T01:13:59;10.30;99.90
612;DHT22;293;53.888;11.464;2024-02-23T01:16:27;10.20;99.90
612;DHT22;293;53.888;11.464;2024-02-23T01:18:54;10.20;99.90
612;DHT22;293;53.888;11.464;2024-02-23T01:21:21;10.10;99.90
612;DHT22;293;53.888;11.464;2024-02-23T01:23:48;10.00;99.90
612;DHT22;293;53.888;11.464;2024-02-23T01:26:15;10.00;99.90
612;DHT22;293;53.888;11.464;2024-02-23T01:28:42;9.90;99.90
612;DHT22;293;53.888;11.464;2024-02-23T01:31:09;9.90;99.90
612;DHT22;293;53.888;11.464;2024-02-23T01:33:39;9.80;99.90
612;DHT22;293;53.888;11.464;2024-02-23T01:36:06;9.70;99.90
612;DHT22;293;53.888;11.464;2024-02-23T01:38:33;9.70;99.90
612;DHT22;293;53.888;11.464;2024-02-23T01:41:01;9.80;99.90
612;DHT22;293;53.888;11.464;2024-02-23T01:43:28;9.70;99.90
612;DHT22;293;53.888;11.464;2024-02-23T01:45:54;9.70;99.90
612;DHT22;293;53.888;11.464;2024-02-23T01:48:21;9.70;99.90
612;DHT22;293;53.888;11.464;2024-02-23T01:50:50;9.60;99.90
612;DHT22;293;53.888;11.464;2024-02-23T01:53:18;9.50;99.90
612;DHT22;293;53.888;11.464;2024-02-23T01:55:46;9.50;99.90
612;DHT22;293;53.888;11.464;2024-02-23T01:58:14;9.50;99.90
612;DHT22;293;53.888;11.464;2024-02-23T02:00:41;9.60;99.90
612;DHT22;293;53.888;11.464;2024-02-23T02:03:08;9.60;99.90
612;DHT22;293;53.888;11.464;2024-02-23T02:05:36;9.60;99.90
612;DHT22;293;53.888;11.464;2024-02-23T02:08:05;9.70;99.90
612;DHT22;293;53.888;11.464;2024-02-23T02:10:31;9.70;99.90
612;DHT22;293;53.888;11.464;2024-02-23T02:13:02;9.70;99.90
612;DHT22;293;53.888;11.464;2024-02-23T02:15:29;9.70;99.90
612;DHT22;293;53.888;11.464;2024-02-23T02:17:56;9.20;99.90
612;DHT22;293;53.888;11.464;2024-02-23T02:20:24;8.80;99.90
612;DHT22;293;53.888;11.464;2024-02-23T02:22:51;8.50;99.90
612;DHT22;293;53.888;11.464;2024-02-23T02:25:20;8.30;99.90
612;DHT22;293;53.888;11.464;2024-02-23T02:27:47;8.10;99.90
612;DHT22;293;53.888;11.464;2024-02-23T02:30:14;8.10;99.90
612;DHT22;293;53.888;11.464;2024-02-23T02:32:41;8.10;99.90
612;DHT22;293;53.888;11.464;2024-02-23T02:35:09;8.00;99.90
612;DHT22;293;53.888;11.464;2024-02-23T02:37:36;8.10;99.90
612;DHT22;293;53.888;11.464;2024-02-23T02:40:04;8.00;99.90
612;DHT22;293;53.888;11.464;2024-02-23T02:42:32;8.00;99.90
612;DHT22;293;53.888;11.464;2024-02-23T02:44:59;8.00;99.90
612;DHT22;293;53.888;11.464;2024-02-23T02:47:28;8.00;99.90
612;DHT22;293;53.888;11.464;2024-02-23T02:49:54;8.00;99.90
612;DHT22;293;53.888;11.464;2024-02-23T02:52:21;8.00;99.90
612;DHT22;293;53.888;11.464;2024-02-23T02:54:48;8.00;99.90
612;DHT22;293;53.888;11.464;2024-02-23T02:57:15;8.00;99.90
612;DHT22;293;53.888;11.464;2024-02-23T02:59:44;8.00;99.90
612;DHT22;293;53.888;11.464;2024-02-23T03:02:11;7.90;99.90
612;DHT22;293;53.888;11.464;2024-02-23T03:04:38;7.80;99.90
612;DHT22;293;53.888;11.464;2024-02-23T03:07:05;7.80;99.90
612;DHT22;293;53.888;11.464;2024-02-23T03:09:32;7.80;99.90
612;DHT22;293;53.888;11.464;2024-02-23T03:11:59;7.80;99.90
612;DHT22;293;53.888;11.464;2024-02-23T03:14:25;7.80;99.90
612;DHT22;293;53.888;11.464;2024-02-23T03:16:53;7.60;99.90
612;DHT22;293;53.888;11.464;2024-02-23T03:19:19;7.70;99.90
612;DHT22;293;53.888;11.464;2024-02-23T03:21:49;7.70;99.90
612;DHT22;293;53.888;11.464;2024-02-23T03:24:16;7.70;99.90
612;DHT22;293;53.888;11.464;2024-02-23T03:26:43;7.70;99.90
612;DHT22;293;53.888;11.464;2024-02-23T03:29:10;7.70;99.90
612;DHT22;293;53.888;11.464;2024-02-23T03:31:37;7.70;99.90
612;DHT22;293;53.888;11.464;2024-02-23T03:34:05;7.70;99.90
612;DHT22;293;53.888;11.464;2024-02-23T03:36:32;7.70;99.90
612;DHT22;293;53.888;11.464;2024-02-23T03:38:59;7.60;99.90
612;DHT22;293;53.888;11.464;2024-02-23T03:41:26;7.60;99.90
612;DHT22;293;53.888;11.464;2024-02-23T03:43:53;7.60;99.90
612;DHT22;293;53.888;11.464;2024-02-23T03:46:19;7.50;99.90
612;DHT22;293;53.888;11.464;2024-02-23T03:48:47;7.60;99.90
612;DHT22;293;53.888;11.464;2024-02-23T03:51:15;7.60;99.90
612;DHT22;293;53.888;11.464;2024-02-23T03:53:42;7.60;99.90
612;DHT22;293;53.888;11.464;2024-02-23T03:56:09;7.60;99.90
612;DHT22;293;53.888;11.464;2024-02-23T03:58:36;7.70;99.90
612;DHT22;293;53.888;11.464;2024-02-23T04:01:03;7.70;99.90
612;DHT22;293;53.888;11.464;2024-02-23T04:03:30;7.70;99.90
612;DHT22;293;53.888;11.464;2024-02-23T04:05:57;7.70;99.90
612;DHT22;293;53.888;11.464;2024-02-23T04:08:25;7.60;99.90
612;DHT22;293;53.888;11.464;2024-02-23T04:10:52;7.60;99.90
612;DHT22;293;53.888;11.464;2024-02-23T04:13:19;7.60;99.90
612;DHT22;293;53.888;11.464;2024-02-23T04:15:45;7.50;99.90
612;DHT22;293;53.888;11.464;2024-02-23T04:18:12;7.50;99.90
612;DHT22;293;53.888;11.464;2024-02-23T04:20:39;7.40;99.90
612;DHT22;293;53.888;11.464;2024-02-23T04:23:06;7.50;99.90
612;DHT22;293;53.888;11.464;2024-02-23T04:25:34;7.50;99.90
612;DHT22;293;53.888;11.464;2024-02-23T04:28:01;7.50;99.90
612;DHT22;293;53.888;11.464;2024-02-23T04:30:28;7.60;99.90
612;DHT22;293;53.888;11.464;2024-02-23T04:32:55;7.60;99.90
612;DHT22;293;53.888;11.464;2024-02-23T04:35:21;7.50;99.90
612;DHT22;293;53.888;11.464;2024-02-23T04:37:48;7.60;99.90
612;DHT22;293;53.888;11.464;2024-02-23T04:40:16;7.50;99.90
612;DHT22;293;53.888;11.464;2024-02-23T04:42:45;7.50;99.90
612;DHT22;293;53.888;11.464;2024-02-23T04:45:11;7.50;99.90
612;DHT22;293;53.888;11.464;2024-02-23T04:47:38;7.50;99.90
612;DHT22;293;53.888;11.464;2024-02-23T04:50:06;7.50;99.90
612;DHT22;293;53.888;11.464;2024-02-23T04:52:34;7.50;99.90
612;DHT22;293;53.888;11.464;2024-02-23T04:55:01;7.40;99.90
612;DHT22;293;53.888;11.464;2024-02-23T04:57:28;7.40;99.90
612;DHT22;293;53.888;11.464;2024-02-23T04:59:56;7.50;99.90
612;DHT22;293;53.888;11.464;2024-02-23T05:02:23;7.50;99.90
612;DHT22;293;53.888;11.464;2024-02-23T05:04:49;7.50;99.90
612;DHT22;293;53.888;11.464;2024-02-23T05:07:16;7.50;99.90
612;DHT22;293;53.888;11.464;2024-02-23T05:09:44;7.40;99.90
612;DHT22;293;53.888;11.464;2024-02-23T05:12:11;7.30;99.90
612;DHT22;293;53.888;11.464;2024-02-23T05:14:38;7.20;99.90
612;DHT22;293;53.888;11.464;2024-02-23T05:17:06;7.20;99.90
612;DHT22;293;53.888;11.464;2024-02-23T05:19:33;7.20;99.90
612;DHT22;293;53.888;11.464;2024-02-23T05:22:00;7.20;99.90
612;DHT22;293;53.888;11.464;2024-02-23T05:24:27;7.20;99.90
612;DHT22;293;53.888;11.464;2024-02-23T05:26:53;7.30;99.90
612;DHT22;293;53.888;11.464;2024-02-23T05:29:20;7.30;99.90
612;DHT22;293;53.888;11.464;2024-02-23T05:31:49;7.40;99.90
612;DHT22;293;53.888;11.464;2024-02-23T05:34:18;7.30;99.90
612;DHT22;293;53.888;11.464;2024-02-23T05:36:45;7.20;99.90
612;DHT22;293;53.888;11.464;2024-02-23T05:39:12;7.20;99.90
612;DHT22;293;53.888;11.464;2024-02-23T05:41:40;7.20;99.90
612;DHT22;293;53.888;11.464;2024-02-23T05:44:08;7.20;99.90
612;DHT22;293;53.888;11.464;2024-02-23T05:46:35;7.20;99.90
612;DHT22;293;53.888;11.464;2024-02-23T05:49:03;7.10;99.90
612;DHT22;293;53.888;11.464;2024-02-23T05:51:31;7.10;99.90
612;DHT22;293;53.888;11.464;2024-02-23T05:54:01;7.00;99.90
612;DHT22;293;53.888;11.464;2024-02-23T05:56:28;6.90;99.90
612;DHT22;293;53.888;11.464;2024-02-23T05:58:54;7.00;99.90
612;DHT22;293;53.888;11.464;2024-02-23T06:01:21;7.00;99.90
612;DHT22;293;53.888;11.464;2024-02-23T06:03:48;7.00;99.90
612;DHT22;293;53.888;11.464;2024-02-23T06:06:15;7.00;99.90
612;DHT22;293;53.888;11.464;2024-02-23T06:08:43;6.90;99.90
612;DHT22;293;53.888;11.464;2024-02-23T06:11:11;7.70;99.90
612;DHT22;293;53.888;11.464;2024-02-23T06:13:38;7.00;99.90
612;DHT22;293;53.888;11.464;2024-02-23T06:16:09;7.00;99.90
612;DHT22;293;53.888;11.464;2024-02-23T06:18:36;7.10;99.90
612;DHT22;293;53.888;11.464;2024-02-23T06:21:11;7.20;99.90
612;DHT22;293;53.888;11.464;2024-02-23T06:23:39;7.20;99.90
612;DHT22;293;53.888;11.464;2024-02-23T06:26:07;7.20;99.90
612;DHT22;293;53.888;11.464;2024-02-23T06:28:34;7.30;99.90
612;DHT22;293;53.888;11.464;2024-02-23T06:31:02;7.30;99.90
612;DHT22;293;53.888;11.464;2024-02-23T06:33:30;7.30;99.90
612;DHT22;293;53.888;11.464;2024-02-23T06:35:57;7.30;99.90
612;DHT22;293;53.888;11.464;2024-02-23T06:38:24;7.30;99.90
612;DHT22;293;53.888;11.464;2024-02-23T06:40:51;7.30;99.90
612;DHT22;293;53.888;11.464;2024-02-23T06:43:19;7.40;99.90
612;DHT22;293;53.888;11.464;2024-02-23T06:45:46;7.30;99.90
612;DHT22;293;53.888;11.464;2024-02-23T06:48:13;7.40;99.90
612;DHT22;293;53.888;11.464;2024-02-23T06:50:40;7.30;99.90
612;DHT22;293;53.888;11.464;2024-02-23T06:53:07;7.40;99.90
612;DHT22;293;53.888;11.464;2024-02-23T06:55:34;7.40;99.90
612;DHT22;293;53.888;11.464;2024-02-23T06:58:01;7.40;99.90
612;DHT22;293;53.888;11.464;2024-02-23T07:00:31;7.40;99.90
612;DHT22;293;53.888;11.464;2024-02-23T07:02:58;7.50;99.90
612;DHT22;293;53.888;11.464;2024-02-23T07:05:27;7.50;99.90
612;DHT22;293;53.888;11.464;2024-02-23T07:07:54;7.60;99.90
612;DHT22;293;53.888;11.464;2024-02-23T07:10:21;7.50;99.90
612;DHT22;293;53.888;11.464;2024-02-23T07:12:50;7.60;99.90
612;DHT22;293;53.888;11.464;2024-02-23T07:15:18;7.60;99.90
612;DHT22;293;53.888;11.464;2024-02-23T07:17:47;7.60;99.90
612;DHT22;293;53.888;11.464;2024-02-23T07:20:14;7.50;99.90
612;DHT22;293;53.888;11.464;2024-02-23T07:22:44;7.50;99.90
612;DHT22;293;53.888;11.464;2024-02-23T07:25:11;7.60;99.90
612;DHT22;293;53.888;11.464;2024-02-23T07:27:38;7.60;99.90
612;DHT22;293;53.888;11.464;2024-02-23T07:30:06;7.70;99.90
612;DHT22;293;53.888;11.464;2024-02-23T07:32:33;7.70;99.90
612;DHT22;293;53.888;11.464;2024-02-23T07:35:02;7.80;99.90
612;DHT22;293;53.888;11.464;2024-02-23T07:37:29;7.80;99.90
612;DHT22;293;53.888;11.464;2024-02-23T07:39:56;7.70;99.90
612;DHT22;293;53.888;11.464;2024-02-23T07:42:23;7.70;99.90
612;DHT22;293;53.888;11.464;2024-02-23T07:44:50;7.70;99.90
612;DHT22;293;53.888;11.464;2024-02-23T07:47:16;7.70;99.90
612;DHT22;293;53.888;11.464;2024-02-23T07:49:43;7.80;99.90
612;DHT22;293;53.888;11.464;2024-02-23T07:52:12;7.80;99.90
612;DHT22;293;53.888;11.464;2024-02-23T07:54:39;7.90;99.90
612;DHT22;293;53.888;11.464;2024-02-23T07:57:05;7.90;99.90
612;DHT22;293;53.888;11.464;2024-02-23T07:59:33;7.90;99.90
612;DHT22;293;53.888;11.464;2024-02-23T08:02:00;7.90;99.90
612;DHT22;293;53.888;11.464;2024-02-23T08:04:27;7.90;99.90
612;DHT22;293;53.888;11.464;2024-02-23T08:06:54;8.00;99.90
612;DHT22;293;53.888;11.464;2024-02-23T08:09:22;8.00;99.90
612;DHT22;293;53.888;11.464;2024-02-23T08:11:49;8.10;99.90
612;DHT22;293;53.888;11.464;2024-02-23T08:14:16;8.10;99.90
612;DHT22;293;53.888;11.464;2024-02-23T08:16:43;8.10;99.90
612;DHT22;293;53.888;11.464;2024-02-23T08:19:10;8.20;99.90
612;DHT22;293;53.888;11.464;2024-02-23T08:21:38;8.30;99.90
612;DHT22;293;53.888;11.464;2024-02-23T08:24:07;8.50;99.90
612;DHT22;293;53.888;11.464;2024-02-23T08:26:35;8.50;99.90
612;DHT22;293;53.888;11.464;2024-02-23T08:29:03;8.60;99.90
612;DHT22;293;53.888;11.464;2024-02-23T08:31:30;8.60;99.90
612;DHT22;293;53.888;11.464;2024-02-23T08:33:57;8.40;99.90
612;DHT22;293;53.888;11.464;2024-02-23T08:36:24;8.40;99.90
612;DHT22;293;53.888;11.464;2024-02-23T08:38:51;8.40;99.90
612;DHT22;293;53.888;11.464;2024-02-23T08:41:18;8.40;99.90
612;DHT22;293;53.888;11.464;2024-02-23T08:43:46;8.40;99.90
612;DHT22;293;53.888;11.464;2024-02-23T08:46:13;8.50;99.90
612;DHT22;293;53.888;11.464;2024-02-23T08:48:40;8.30;99.90
612;DHT22;293;53.888;11.464;2024-02-23T08:51:07;8.30;99.90
612;DHT22;293;53.888;11.464;2024-02-23T08:53:34;8.30;99.90
612;DHT22;293;53.888;11.464;2024-02-23T08:56:00;8.20;99.90
612;DHT22;293;53.888;11.464;2024-02-23T08:58:27;8.20;99.90
612;DHT22;293;53.888;11.464;2024-02-23T09:00:55;8.30;99.90
612;DHT22;293;53.888;11.464;2024-02-23T09:03:22;8.20;99.90
612;DHT22;293;53.888;11.464;2024-02-23T09:05:49;8.20;99.90
612;DHT22;293;53.888;11.464;2024-02-23T09:08:16;8.30;99.90
612;DHT22;293;53.888;11.464;2024-02-23T09:10:43;8.30;99.90
612;DHT22;293;53.888;11.464;2024-02-23T09:13:10;8.20;99.90
612;DHT22;293;53.888;11.464;2024-02-23T09:15:38;8.20;99.90
612;DHT22;293;53.888;11.464;2024-02-23T09:18:06;8.20;99.90
612;DHT22;293;53.888;11.464;2024-02-23T09:20:33;8.20;99.90
612;DHT22;293;53.888;11.464;2024-02-23T09:23:00;8.20;99.90
612;DHT22;293;53.888;11.464;2024-02-23T09:25:27;8.30;99.90
612;DHT22;293;53.888;11.464;2024-02-23T09:27:57;8.30;99.90
612;DHT22;293;53.888;11.464;2024-02-23T09:30:23;8.30;99.90
612;DHT22;293;53.888;11.464;2024-02-23T09:32:50;8.30;99.90
612;DHT22;293;53.888;11.464;2024-02-23T09:35:19;8.30;99.90
612;DHT22;293;53.888;11.464;2024-02-23T09:37:46;8.30;99.90
612;DHT22;293;53.888;11.464;2024-02-23T09:40:14;8.30;99.90
612;DHT22;293;53.888;11.464;2024-02-23T09:42:42;8.40;99.90
612;DHT22;293;53.888;11.464;2024-02-23T09:45:11;8.40;99.90
612;DHT22;293;53.888;11.464;2024-02-23T09:47:38;8.50;99.90
612;DHT22;293;53.888;11.464;2024-02-23T09:50:08;8.60;99.90
612;DHT22;293;53.888;11.464;2024-02-23T09:52:37;8.60;99.90
612;DHT22;293;53.888;11.464;2024-02-23T09:55:04;8.60;99.90
612;DHT22;293;53.888;11.464;2024-02-23T09:57:32;8.70;99.90
612;DHT22;293;53.888;11.464;2024-02-23T09:59:59;8.70;99.90
612;DHT22;293;53.888;11.464;2024-02-23T10:02:30;8.70;99.90
612;DHT22;293;53.888;11.464;2024-02-23T10:04:58;8.80;99.90
612;DHT22;293;53.888;11.464;2024-02-23T10:07:26;8.80;99.90
612;DHT22;293;53.888;11.464;2024-02-23T10:09:54;8.90;99.90
612;DHT22;293;53.888;11.464;2024-02-23T10:12:21;9.00;99.90
612;DHT22;293;53.888;11.464;2024-02-23T10:14:48;9.10;99.90
612;DHT22;293;53.888;11.464;2024-02-23T10:17:15;9.20;99.90
612;DHT22;293;53.888;11.464;2024-02-23T10:19:41;9.30;99.90
612;DHT22;293;53.888;11.464;2024-02-23T10:22:08;9.40;99.90
612;DHT22;293;53.888;11.464;2024-02-23T10:24:36;9.40;99.90
612;DHT22;293;53.888;11.464;2024-02-23T10:27:05;9.40;99.90
612;DHT22;293;53.888;11.464;2024-02-23T10:29:32;9.40;99.90
612;DHT22;293;53.888;11.464;2024-02-23T10:31:59;9.40;99.90
612;DHT22;293;53.888;11.464;2024-02-23T10:34:29;9.40;99.90
612;DHT22;293;53.888;11.464;2024-02-23T10:36:57;9.40;99.90
612;DHT22;293;53.888;11.464;2024-02-23T10:39:24;9.40;99.90
612;DHT22;293;53.888;11.464;2024-02-23T10:41:57;9.40;99.90
612;DHT22;293;53.888;11.464;2024-02-23T10:44:27;9.40;99.90
612;DHT22;293;53.888;11.464;2024-02-23T10:46:55;9.50;99.90
612;DHT22;293;53.888;11.464;2024-02-23T10:49:23;9.50;99.90
612;DHT22;293;53.888;11.464;2024-02-23T10:51:52;9.70;99.90
612;DHT22;293;53.888;11.464;2024-02-23T10:54:20;9.70;99.90
612;DHT22;293;53.888;11.464;2024-02-23T10:56:52;9.80;99.90
612;DHT22;293;53.888;11.464;2024-02-23T10:59:21;9.90;99.90
612;DHT22;293;53.888;11.464;2024-02-23T11:01:52;9.90;99.90
612;DHT22;293;53.888;11.464;2024-02-23T11:04:20;10.00;99.90
612;DHT22;293;53.888;11.464;2024-02-23T11:06:51;9.90;99.90
612;DHT22;293;53.888;11.464;2024-02-23T11:09:21;9.80;99.90
612;DHT22;293;53.888;11.464;2024-02-23T11:11:53;9.90;99.90
612;DHT22;293;53.888;11.464;2024-02-23T11:14:29;9.90;99.90
612;DHT22;293;53.888;11.464;2024-02-23T11:16:59;9.80;99.90
612;DHT22;293;53.888;11.464;2024-02-23T11:19:33;9.80;99.90
612;DHT22;293;53.888;11.464;2024-02-23T11:22:01;9.80;99.90
612;DHT22;293;53.888;11.464;2024-02-23T11:24:29;9.80;99.90
612;DHT22;293;53.888;11.464;2024-02-23T11:26:57;9.90;99.90
612;DHT22;293;53.888;11.464;2024-02-23T11:29:26;9.80;99.90
612;DHT22;293;53.888;11.464;2024-02-23T11:31:55;9.70;99.90
612;DHT22;293;53.888;11.464;2024-02-23T11:34:28;9.70;99.90
612;DHT22;293;53.888;11.464;2024-02-23T11:36:55;9.70;99.90
612;DHT22;293;53.888;11.464;2024-02-23T11:39:24;9.70;99.90
612;DHT22;293;53.888;11.464;2024-02-23T11:41:52;9.70;99.90
612;DHT22;293;53.888;11.464;2024-02-23T11:44:19;9.80;99.90
612;DHT22;293;53.888;11.464;2024-02-23T11:46:46;9.70;99.90
612;DHT22;293;53.888;11.464;2024-02-23T11:49:14;9.80;99.90
612;DHT22;293;53.888;11.464;2024-02-23T11:51:42;9.80;99.90
612;DHT22;293;53.888;11.464;2024-02-23T11:54:10;9.80;99.90
612;DHT22;293;53.888;11.464;2024-02-23T11:56:37;9.80;99.90
612;DHT22;293;53.888;11.464;2024-02-23T11:59:05;9.90;99.90
612;DHT22;293;53.888;11.464;2024-02-23T12:01:31;9.90;99.90
612;DHT22;293;53.888;11.464;2024-02-23T12:03:58;10.00;99.90
612;DHT22;293;53.888;11.464;2024-02-23T12:06:26;10.20;99.90
612;DHT22;293;53.888;11.464;2024-02-23T12:08:57;10.40;99.90
612;DHT22;293;53.888;11.464;2024-02-23T12:11:24;10.50;99.90
612;DHT22;293;53.888;11.464;2024-02-23T12:13:51;10.70;99.10
612;DHT22;293;53.888;11.464;2024-02-23T12:16:18;10.70;98.90
612;DHT22;293;53.888;11.464;2024-02-23T12:18:53;10.70;98.90
612;DHT22;293;53.888;11.464;2024-02-23T12:21:22;10.70;99.10
612;DHT22;293;53.888;11.464;2024-02-23T12:23:50;10.60;98.70
612;DHT22;293;53.888;11.464;2024-02-23T12:26:18;10.70;99.00
612;DHT22;293;53.888;11.464;2024-02-23T12:28:46;10.70;99.50
612;DHT22;293;53.888;11.464;2024-02-23T12:31:13;10.70;99.00
612;DHT22;293;53.888;11.464;2024-02-23T12:33:40;10.90;98.40
612;DHT22;293;53.888;11.464;2024-02-23T12:36:08;10.80;98.20
612;DHT22;293;53.888;11.464;2024-02-23T12:38:35;10.80;97.40
612;DHT22;293;53.888;11.464;2024-02-23T12:41:04;10.70;97.50
612;DHT22;293;53.888;11.464;2024-02-23T12:43:32;10.60;97.40
612;DHT22;293;53.888;11.464;2024-02-23T12:45:59;10.70;97.00
612;DHT22;293;53.888;11.464;2024-02-23T12:48:28;10.60;96.70
612;DHT22;293;53.888;11.464;2024-02-23T12:50:55;10.50;96.80
612;DHT22;293;53.888;11.464;2024-02-23T12:53:32;10.50;97.80
612;DHT22;293;53.888;11.464;2024-02-23T12:56:01;10.50;97.60
612;DHT22;293;53.888;11.464;2024-02-23T12:58:28;10.50;98.00
612;DHT22;293;53.888;11.464;2024-02-23T13:00:57;10.50;97.90
612;DHT22;293;53.888;11.464;2024-02-23T13:03:25;10.70;98.00
612;DHT22;293;53.888;11.464;2024-02-23T13:05:52;10.80;98.10
612;DHT22;293;53.888;11.464;2024-02-23T13:08:19;11.00;97.80
612;DHT22;293;53.888;11.464;2024-02-23T13:10:46;11.00;97.70
612;DHT22;293;53.888;11.464;2024-02-23T13:13:13;11.00;97.20
612;DHT22;293;53.888;11.464;2024-02-23T13:15:41;11.00;97.00
612;DHT22;293;53.888;11.464;2024-02-23T13:18:09;10.90;96.90
612;DHT22;293;53.888;11.464;2024-02-23T13:20:36;10.90;97.10
612;DHT22;293;53.888;11.464;2024-02-23T13:23:04;10.90;97.00
612;DHT22;293;53.888;11.464;2024-02-23T13:25:32;10.90;97.20
612;DHT22;293;53.888;11.464;2024-02-23T13:27:59;11.00;97.50
612;DHT22;293;53.888;11.464;2024-02-23T13:30:26;11.10;97.30
612;DHT22;293;53.888;11.464;2024-02-23T13:32:53;11.20;97.30
612;DHT22;293;53.888;11.464;2024-02-23T13:35:22;11.20;96.70
612;DHT22;293;53.888;11.464;2024-02-23T13:37:49;11.20;96.10
612;DHT22;293;53.888;11.464;2024-02-23T13:40:16;11.30;96.70
612;DHT22;293;53.888;11.464;2024-02-23T13:42:43;11.30;96.40
612;DHT22;293;53.888;11.464;2024-02-23T13:45:11;11.30;96.50
612;DHT22;293;53.888;11.464;2024-02-23T13:47:40;11.20;96.40
612;DHT22;293;53.888;11.464;2024-02-23T13:50:08;11.30;97.00
612;DHT22;293;53.888;11.464;2024-02-23T13:52:36;11.30;97.20
612;DHT22;293;53.888;11.464;2024-02-23T13:55:04;11.30;96.50
612;DHT22;293;53.888;11.464;2024-02-23T13:57:31;11.40;96.80
612;DHT22;293;53.888;11.464;2024-02-23T13:59:58;11.40;96.90
612;DHT22;293;53.888;11.464;2024-02-23T14:02:26;11.40;97.20
612;DHT22;293;53.888;11.464;2024-02-23T14:05:00;11.40;95.90
612;DHT22;293;53.888;11.464;2024-02-23T14:07:27;11.50;96.50
612;DHT22;293;53.888;11.464;2024-02-23T14:09:56;11.50;96.30
612;DHT22;293;53.888;11.464;2024-02-23T14:12:23;11.60;96.10
612;DHT22;293;53.888;11.464;2024-02-23T14:14:49;11.50;96.10
612;DHT22;293;53.888;11.464;2024-02-23T14:17:16;11.50;95.60
612;DHT22;293;53.888;11.464;2024-02-23T14:19:43;11.50;96.20
612;DHT22;293;53.888;11.464;2024-02-23T14:22:10;11.40;95.80
612;DHT22;293;53.888;11.464;2024-02-23T14:24:37;11.30;96.10
612;DHT22;293;53.888;11.464;2024-02-23T14:27:06;11.40;96.40
612;DHT22;293;53.888;11.464;2024-02-23T14:29:33;11.30;96.40
612;DHT22;293;53.888;11.464;2024-02-23T14:32:00;11.30;96.70
612;DHT22;293;53.888;11.464;2024-02-23T14:34:27;11.30;96.70
612;DHT22;293;53.888;11.464;2024-02-23T14:36:54;11.30;96.90
612;DHT22;293;53.888;11.464;2024-02-23T14:39:22;11.30;96.60
612;DHT22;293;53.888;11.464;2024-02-23T14:41:49;11.20;96.80
612;DHT22;293;53.888;11.464;2024-02-23T14:44:17;11.20;96.90
612;DHT22;293;53.888;11.464;2024-02-23T14:46:44;11.10;97.10
612;DHT22;293;53.888;11.464;2024-02-23T14:49:11;11.10;97.40
612;DHT22;293;53.888;11.464;2024-02-23T14:51:38;11.00;96.20
612;DHT22;293;53.888;11.464;2024-02-23T14:54:08;11.00;96.90
612;DHT22;293;53.888;11.464;2024-02-23T14:56:35;11.00;97.90
612;DHT22;293;53.888;11.464;2024-02-23T14:59:01;10.90;98.50
612;DHT22;293;53.888;11.464;2024-02-23T15:01:30;10.90;98.30
612;DHT22;293;53.888;11.464;2024-02-23T15:03:57;10.90;98.50
612;DHT22;293;53.888;11.464;2024-02-23T15:06:23;10.90;98.00
612;DHT22;293;53.888;11.464;2024-02-23T15:08:50;10.90;98.60
612;DHT22;293;53.888;11.464;2024-02-23T15:11:17;10.80;98.00
612;DHT22;293;53.888;11.464;2024-02-23T15:13:44;10.80;97.40
612;DHT22;293;53.888;11.464;2024-02-23T15:16:11;10.90;98.20
612;DHT22;293;53.888;11.464;2024-02-23T15:18:39;10.80;98.60
612;DHT22;293;53.888;11.464;2024-02-23T15:21:06;10.90;98.60
612;DHT22;293;53.888;11.464;2024-02-23T15:23:33;10.80;98.50
612;DHT22;293;53.888;11.464;2024-02-23T15:26:00;10.80;98.40
612;DHT22;293;53.888;11.464;2024-02-23T15:28:26;10.70;98.60
612;DHT22;293;53.888;11.464;2024-02-23T15:30:53;10.70;98.60
612;DHT22;293;53.888;11.464;2024-02-23T15:33:21;10.60;98.40
612;DHT22;293;53.888;11.464;2024-02-23T15:35:49;10.60;98.70
612;DHT22;293;53.888;11.464;2024-02-23T15:38:16;10.60;98.70
612;DHT22;293;53.888;11.464;2024-02-23T15:40:43;10.60;98.80
612;DHT22;293;53.888;11.464;2024-02-23T15:43:09;10.50;99.00
612;DHT22;293;53.888;11.464;2024-02-23T15:45:36;10.50;99.30
612;DHT22;293;53.888;11.464;2024-02-23T15:48:04;10.50;98.60
612;DHT22;293;53.888;11.464;2024-02-23T15:50:31;10.50;98.90
612;DHT22;293;53.888;11.464;2024-02-23T15:52:59;10.40;98.80
612;DHT22;293;53.888;11.464;2024-02-23T15:55:27;10.40;99.10
612;DHT22;293;53.888;11.464;2024-02-23T15:57:54;10.40;99.40
612;DHT22;293;53.888;11.464;2024-02-23T16:00:21;10.40;99.40
612;DHT22;293;53.888;11.464;2024-02-23T16:02:47;10.40;99.50
612;DHT22;293;53.888;11.464;2024-02-23T16:05:14;10.30;99.20
612;DHT22;293;53.888;11.464;2024-02-23T16:07:41;10.20;98.90
612;DHT22;293;53.888;11.464;2024-02-23T16:10:11;10.30;99.30
612;DHT22;293;53.888;11.464;2024-02-23T16:12:38;10.30;99.90
612;DHT22;293;53.888;11.464;2024-02-23T16:15:06;10.20;99.50
612;DHT22;293;53.888;11.464;2024-02-23T16:17:34;10.20;99.60
612;DHT22;293;53.888;11.464;2024-02-23T16:20:01;10.10;99.70
612;DHT22;293;53.888;11.464;2024-02-23T16:22:28;10.10;99.10
612;DHT22;293;53.888;11.464;2024-02-23T16:24:55;10.10;99.80
612;DHT22;293;53.888;11.464;2024-02-23T16:27:23;10.00;99.90
612;DHT22;293;53.888;11.464;2024-02-23T16:29:50;10.00;99.60